Time;durP1;ratioP1;P1;durP2;ratioP2;P2;SDS_P1;SDS_P2;PMS_P1;PMS_P2;Temp;Humidity;BMP_temperature;BMP_pressure;BME280_temperature;BME280_humidity;BME280_pressure;Samples;Min_cycle;Max_cycle;Signal;HPM_P1;HPM_P2
2023/03/23 00:01:07;;;;;;;0.10;0.10;;;9.60;99.90;;;;;;5039225;28;20028;-74
2023/03/23 00:03:32;;;;;;;0.20;0.20;;;9.60;99.90;;;;;;5039269;28;20098;-74
2023/03/23 00:06:05;;;;;;;0.10;0.10;;;9.60;99.90;;;;;;5056937;28;20470;-74
2023/03/23 00:08:33;;;;;;;0.10;0.10;;;9.60;99.90;;;;;;5056953;28;20477;-75
2023/03/23 00:11:00;;;;;;;0.20;0.20;;;9.70;99.90;;;;;;5038889;28;20021;-74
2023/03/23 00:13:28;;;;;;;0.10;0.10;;;9.70;99.90;;;;;;5056984;28;20424;-75
2023/03/23 00:15:53;;;;;;;0.10;0.10;;;9.70;99.90;;;;;;5057060;28;20112;-75
2023/03/23 00:18:23;;;;;;;0.10;0.10;;;9.70;99.90;;;;;;5056120;28;20072;-74
2023/03/23 00:20:56;;;;;;;0.10;0.10;;;9.70;99.90;;;;;;5036999;28;20057;-74
2023/03/23 00:23:28;;;;;;;0.10;0.10;;;9.80;99.90;;;;;;5036760;28;20022;-75
2023/03/23 00:25:58;;;;;;;0.10;0.10;;;9.80;99.90;;;;;;5035631;28;20026;-75
2023/03/23 00:28:26;;;;;;;0.10;0.10;;;9.80;99.90;;;;;;5018685;28;20029;-74
2023/03/23 00:30:59;;;;;;;0.10;0.10;;;9.80;99.90;;;;;;5046326;28;20497;-75
2023/03/23 00:33:26;;;;;;;0.10;0.10;;;9.80;99.90;;;;;;5038847;28;20044;-75
2023/03/23 00:35:52;;;;;;;0.10;0.10;;;9.80;99.90;;;;;;5056437;28;20041;-74
2023/03/23 00:38:20;;;;;;;0.10;0.10;;;9.80;99.90;;;;;;5056775;28;20110;-75
2023/03/23 00:40:47;;;;;;;0.10;0.10;;;9.80;99.90;;;;;;5056499;28;20033;-75
2023/03/23 00:43:13;;;;;;;0.10;0.10;;;9.80;99.90;;;;;;5056027;28;20036;-74
2023/03/23 00:45:39;;;;;;;0.10;0.10;;;9.80;99.90;;;;;;5056412;28;20021;-75
2023/03/23 00:48:05;;;;;;;0.20;0.20;;;9.80;99.90;;;;;;5055867;28;20386;-75
2023/03/23 00:50:31;;;;;;;0.10;0.10;;;9.80;99.90;;;;;;5056358;28;20052;-75
2023/03/23 00:52:57;;;;;;;0.10;0.10;;;9.70;99.90;;;;;;5056037;28;20091;-75
2023/03/23 00:55:24;;;;;;;0.10;0.10;;;9.70;99.90;;;;;;5056369;28;20033;-74
2023/03/23 00:57:51;;;;;;;0.10;0.10;;;9.60;99.90;;;;;;5056125;28;20025;-75
2023/03/23 01:00:18;;;;;;;0.10;0.10;;;9.60;99.90;;;;;;5055999;28;20025;-75
2023/03/23 01:02:44;;;;;;;0.10;0.10;;;9.50;99.90;;;;;;5055755;28;20589;-75
2023/03/23 01:05:11;;;;;;;0.10;0.10;;;9.50;99.90;;;;;;5055847;28;20060;-75
2023/03/23 01:07:37;;;;;;;0.10;0.10;;;9.40;99.90;;;;;;5055857;28;20059;-75
2023/03/23 01:10:04;;;;;;;0.10;0.10;;;9.50;99.90;;;;;;5055515;28;20021;-74
2023/03/23 01:12:29;;;;;;;0.10;0.10;;;9.50;99.90;;;;;;5037601;28;20124;-75
2023/03/23 01:14:55;;;;;;;0.10;0.10;;;9.40;99.90;;;;;;5055993;28;20110;-75
2023/03/23 01:17:21;;;;;;;0.10;0.10;;;9.40;99.90;;;;;;5037775;28;20104;-75
2023/03/23 01:19:46;;;;;;;0.10;0.10;;;9.40;99.90;;;;;;5055888;28;20402;-75
2023/03/23 01:22:12;;;;;;;0.10;0.10;;;9.30;99.90;;;;;;5055701;28;20021;-75
2023/03/23 01:24:38;;;;;;;0.10;0.10;;;9.30;99.90;;;;;;5055175;28;20402;-75
2023/03/23 01:27:06;;;;;;;0.20;0.20;;;9.30;99.90;;;;;;5056114;28;20032;-75
2023/03/23 01:29:33;;;;;;;0.10;0.10;;;9.20;99.90;;;;;;5056421;28;20041;-75
2023/03/23 01:31:59;;;;;;;0.15;0.15;;;9.20;99.90;;;;;;5056564;28;20474;-75
2023/03/23 01:34:24;;;;;;;0.10;0.10;;;9.20;99.90;;;;;;5037756;28;20017;-75
2023/03/23 01:36:50;;;;;;;0.10;0.10;;;9.20;99.90;;;;;;5055555;28;20021;-75
2023/03/23 01:39:15;;;;;;;0.10;0.10;;;9.20;99.90;;;;;;5055247;28;20025;-75
2023/03/23 01:41:41;;;;;;;0.10;0.10;;;9.20;99.90;;;;;;5054739;28;20032;-75
2023/03/23 01:44:17;;;;;;;0.20;0.20;;;9.30;99.90;;;;;;5037392;28;20036;-75
2023/03/23 01:46:43;;;;;;;0.10;0.10;;;9.20;99.90;;;;;;5042839;28;20393;-75
2023/03/23 01:49:14;;;;;;;0.20;0.20;;;9.20;99.90;;;;;;5055196;28;20021;-75
2023/03/23 01:51:47;;;;;;;0.20;0.20;;;9.20;99.90;;;;;;5054597;28;20029;-75
2023/03/23 01:54:20;;;;;;;0.20;0.20;;;9.20;99.90;;;;;;5055297;28;20162;-75
2023/03/23 01:56:59;;;;;;;0.10;0.10;;;9.20;99.90;;;;;;5055064;28;20051;-75
2023/03/23 01:59:26;;;;;;;0.20;0.20;;;9.10;99.90;;;;;;5054039;28;20074;-76
2023/03/23 02:01:53;;;;;;;0.10;0.10;;;9.10;99.90;;;;;;5037259;28;20033;-75
2023/03/23 02:04:21;;;;;;;0.20;0.20;;;9.10;99.90;;;;;;5036836;28;20074;-75
2023/03/23 02:06:47;;;;;;;0.20;0.20;;;9.10;99.90;;;;;;5036697;28;20029;-75
2023/03/23 02:09:13;;;;;;;0.15;0.15;;;9.10;99.90;;;;;;5054757;28;20031;-75
2023/03/23 02:11:40;;;;;;;0.20;0.20;;;9.10;99.90;;;;;;5054734;28;20032;-75
2023/03/23 02:14:05;;;;;;;0.10;0.10;;;9.00;99.90;;;;;;5054621;28;20544;-75
2023/03/23 02:17:06;;;;;;;0.20;0.20;;;9.00;99.90;;;;;;5054818;28;20032;-75
2023/03/23 02:20:05;;;;;;;0.15;0.15;;;9.10;99.90;;;;;;5071544;28;20390;-74
2023/03/23 02:22:44;;;;;;;0.13;0.13;;;9.10;99.90;;;;;;5071046;28;20025;-74
2023/03/23 02:25:31;;;;;;;0.20;0.20;;;9.00;99.90;;;;;;5050024;28;20398;-74
2023/03/23 02:28:18;;;;;;;0.10;0.10;;;9.00;99.90;;;;;;5057967;28;20052;-74
2023/03/23 02:31:08;;;;;;;0.10;0.10;;;9.00;99.90;;;;;;5071242;28;20036;-74
2023/03/23 02:33:36;;;;;;;0.10;0.10;;;9.00;99.90;;;;;;5070438;28;20044;-74
2023/03/23 02:36:24;;;;;;;0.10;0.10;;;9.00;99.90;;;;;;5070614;28;20020;-74
2023/03/23 02:39:09;;;;;;;0.10;0.10;;;9.00;99.90;;;;;;5070845;28;20048;-74
2023/03/23 02:41:47;;;;;;;0.20;0.20;;;8.90;99.90;;;;;;5070563;28;20482;-73
2023/03/23 02:44:14;;;;;;;0.20;0.20;;;8.90;99.90;;;;;;5070159;28;20083;-73
2023/03/23 02:46:42;;;;;;;0.10;0.10;;;8.80;99.90;;;;;;5070578;28;20375;-73
2023/03/23 02:49:10;;;;;;;0.10;0.10;;;8.70;99.90;;;;;;5070324;28;20029;-73
2023/03/23 02:51:37;;;;;;;0.20;0.20;;;8.70;99.90;;;;;;5070832;28;20063;-73
2023/03/23 02:54:05;;;;;;;0.10;0.10;;;8.60;99.90;;;;;;5070818;28;20029;-73
2023/03/23 02:56:32;;;;;;;0.10;0.10;;;8.60;99.90;;;;;;5068566;28;20025;-73
2023/03/23 02:58:58;;;;;;;0.10;0.10;;;8.60;99.90;;;;;;5068972;28;20092;-73
2023/03/23 03:01:32;;;;;;;0.10;0.10;;;8.60;99.90;;;;;;5070166;28;20593;-73
2023/03/23 03:04:01;;;;;;;0.10;0.10;;;8.60;99.90;;;;;;5069077;28;20074;-73
2023/03/23 03:06:39;;;;;;;0.13;0.13;;;8.60;99.90;;;;;;5069906;28;20039;-73
2023/03/23 03:09:17;;;;;;;0.10;0.10;;;8.60;99.90;;;;;;5070108;28;20017;-73
2023/03/23 03:11:49;;;;;;;0.10;0.10;;;8.60;99.90;;;;;;5068889;28;20456;-73
2023/03/23 03:14:30;;;;;;;0.10;0.10;;;8.60;99.90;;;;;;5069725;28;20025;-73
2023/03/23 03:17:13;;;;;;;0.10;0.10;;;8.60;99.90;;;;;;5068658;28;20490;-73
2023/03/23 03:19:46;;;;;;;0.10;0.10;;;8.60;99.90;;;;;;5069743;28;20036;-73
2023/03/23 03:22:12;;;;;;;0.10;0.10;;;8.60;99.90;;;;;;5070075;28;20025;-73
2023/03/23 03:24:40;;;;;;;0.10;0.10;;;8.50;99.90;;;;;;5069278;28;20025;-73
2023/03/23 03:27:14;;;;;;;0.10;0.10;;;8.50;99.90;;;;;;5068511;28;20027;-73
2023/03/23 03:29:43;;;;;;;0.20;0.20;;;8.50;99.90;;;;;;5063086;28;20032;-73
2023/03/23 03:32:12;;;;;;;0.17;0.17;;;8.50;99.90;;;;;;5056329;28;20086;-73
2023/03/23 03:34:38;;;;;;;0.10;0.10;;;8.50;99.90;;;;;;5055941;28;20017;-73
2023/03/23 03:37:05;;;;;;;0.10;0.10;;;8.50;99.90;;;;;;5056420;28;20025;-73
2023/03/23 03:39:36;;;;;;;0.20;0.20;;;8.50;99.90;;;;;;5056118;28;20036;-73
2023/03/23 03:42:01;;;;;;;0.10;0.10;;;8.50;99.90;;;;;;5057189;28;20452;-73
2023/03/23 03:44:27;;;;;;;0.20;0.20;;;8.50;99.90;;;;;;5055537;28;20100;-73
2023/03/23 03:46:53;;;;;;;0.10;0.10;;;8.50;99.90;;;;;;5056621;28;20027;-73
2023/03/23 03:49:18;;;;;;;0.10;0.10;;;8.50;99.90;;;;;;5054631;28;20052;-74
2023/03/23 03:51:45;;;;;;;0.10;0.10;;;8.60;99.90;;;;;;5055027;28;20441;-73
2023/03/23 03:54:11;;;;;;;0.10;0.10;;;8.60;99.90;;;;;;5055576;28;20025;-73
2023/03/23 03:56:40;;;;;;;0.10;0.10;;;8.60;99.90;;;;;;5055314;28;20025;-73
2023/03/23 03:59:07;;;;;;;0.13;0.13;;;8.50;99.90;;;;;;5054559;28;20025;-74
2023/03/23 04:01:33;;;;;;;0.10;0.10;;;8.50;99.90;;;;;;5054505;28;20112;-74
2023/03/23 04:04:00;;;;;;;0.10;0.10;;;8.50;99.90;;;;;;5056043;28;20107;-74
2023/03/23 04:06:27;;;;;;;0.10;0.10;;;8.50;99.90;;;;;;5054344;28;20021;-74
2023/03/23 04:08:55;;;;;;;0.10;0.10;;;8.50;99.90;;;;;;5055979;28;20021;-73
2023/03/23 04:11:20;;;;;;;0.10;0.10;;;8.50;99.90;;;;;;5055828;28;20021;-73
2023/03/23 04:13:46;;;;;;;0.10;0.10;;;8.50;99.90;;;;;;5054357;28;20032;-73
2023/03/23 04:16:11;;;;;;;0.10;0.10;;;8.40;99.90;;;;;;5055134;28;20029;-73
2023/03/23 04:18:38;;;;;;;0.10;0.10;;;8.50;99.90;;;;;;5078355;22;20035;-73
2023/03/23 04:21:03;;;;;;;0.10;0.10;;;8.50;99.90;;;;;;5034572;28;20026;-73
2023/03/23 04:23:33;;;;;;;0.10;0.10;;;8.50;99.90;;;;;;5035036;28;20367;-73
2023/03/23 04:25:59;;;;;;;0.10;0.10;;;8.50;99.90;;;;;;5035091;28;20017;-73
2023/03/23 04:28:25;;;;;;;0.10;0.10;;;8.40;99.90;;;;;;5034535;28;20021;-73
2023/03/23 04:30:55;;;;;;;0.10;0.10;;;8.50;99.90;;;;;;5034303;28;20025;-73
2023/03/23 04:33:24;;;;;;;0.20;0.20;;;8.50;99.90;;;;;;5034841;28;20021;-73
2023/03/23 04:35:53;;;;;;;0.10;0.10;;;8.50;99.90;;;;;;5034698;28;20080;-73
2023/03/23 04:38:20;;;;;;;0.10;0.10;;;8.50;99.90;;;;;;5034479;28;20499;-73
2023/03/23 04:40:47;;;;;;;0.10;0.10;;;8.50;99.90;;;;;;5033914;28;20026;-73
2023/03/23 04:43:14;;;;;;;0.00;0.00;;;8.60;99.90;;;;;;5034366;28;20030;-73
2023/03/23 04:45:45;;;;;;;0.10;0.10;;;8.60;99.90;;;;;;5033389;28;20052;-73
2023/03/23 04:48:11;;;;;;;0.10;0.10;;;8.60;99.90;;;;;;5034532;28;20029;-73
2023/03/23 04:50:37;;;;;;;0.20;0.20;;;8.60;99.90;;;;;;5034195;28;20112;-73
2023/03/23 04:53:04;;;;;;;0.10;0.10;;;8.70;99.90;;;;;;5034176;28;20100;-73
2023/03/23 04:55:35;;;;;;;0.13;0.13;;;8.70;99.90;;;;;;5034190;28;20025;-73
2023/03/23 04:58:05;;;;;;;0.10;0.10;;;8.70;99.90;;;;;;5034376;28;20061;-73
2023/03/23 05:00:32;;;;;;;0.20;0.20;;;8.70;99.90;;;;;;5034149;28;20121;-73
2023/03/23 05:02:58;;;;;;;0.10;0.10;;;8.70;99.90;;;;;;5033842;28;20017;-72
2023/03/23 05:05:25;;;;;;;0.10;0.10;;;8.80;99.90;;;;;;5032845;28;20040;-73
2023/03/23 05:07:50;;;;;;;0.20;0.20;;;8.80;99.90;;;;;;5032788;28;20033;-73
2023/03/23 05:10:17;;;;;;;0.20;0.20;;;8.80;99.90;;;;;;5033873;28;20033;-73
2023/03/23 05:12:43;;;;;;;0.10;0.10;;;8.80;99.90;;;;;;5033840;28;20067;-73
2023/03/23 05:15:10;;;;;;;0.10;0.10;;;8.80;99.90;;;;;;5034496;28;20036;-73
2023/03/23 05:17:36;;;;;;;0.10;0.10;;;8.90;99.90;;;;;;5033460;28;20403;-73
2023/03/23 05:20:07;;;;;;;0.10;0.10;;;8.90;99.90;;;;;;5033820;28;20089;-73
2023/03/23 05:22:33;;;;;;;0.20;0.20;;;8.90;99.90;;;;;;5033560;28;20014;-73
2023/03/23 05:24:59;;;;;;;0.10;0.10;;;8.90;99.90;;;;;;5033867;28;20021;-73
2023/03/23 05:27:27;;;;;;;0.10;0.10;;;8.90;99.90;;;;;;5034238;28;20021;-73
2023/03/23 05:29:53;;;;;;;0.10;0.10;;;8.90;99.90;;;;;;5033105;28;20368;-73
2023/03/23 05:32:20;;;;;;;0.17;0.17;;;9.00;99.90;;;;;;5033760;28;20032;-73
2023/03/23 05:34:46;;;;;;;0.10;0.10;;;9.00;99.90;;;;;;5033790;28;20017;-73
2023/03/23 05:37:13;;;;;;;0.10;0.10;;;8.90;99.90;;;;;;5033572;28;20013;-73
2023/03/23 05:39:39;;;;;;;0.20;0.20;;;9.00;99.90;;;;;;5033582;28;20021;-73
2023/03/23 05:42:06;;;;;;;0.10;0.10;;;9.00;99.90;;;;;;5032282;28;20025;-73
2023/03/23 05:44:31;;;;;;;0.10;0.10;;;8.90;99.90;;;;;;5032905;28;20600;-73
2023/03/23 05:46:57;;;;;;;0.10;0.10;;;8.90;99.90;;;;;;5033270;28;20029;-73
2023/03/23 05:49:24;;;;;;;0.10;0.10;;;8.80;99.90;;;;;;5033796;28;20037;-73
2023/03/23 05:51:49;;;;;;;0.10;0.10;;;8.80;99.90;;;;;;5033271;28;20021;-73
2023/03/23 05:54:16;;;;;;;0.10;0.10;;;8.80;99.90;;;;;;5033061;28;20075;-73
2023/03/23 05:56:42;;;;;;;0.10;0.10;;;8.80;99.90;;;;;;5032965;28;20036;-73
2023/03/23 05:59:09;;;;;;;0.10;0.10;;;8.80;99.90;;;;;;5033029;28;20029;-73
2023/03/23 06:01:34;;;;;;;0.10;0.10;;;8.80;99.90;;;;;;5031928;28;20026;-73
2023/03/23 06:04:01;;;;;;;0.13;0.13;;;8.80;99.90;;;;;;5033209;28;20100;-73
2023/03/23 06:06:28;;;;;;;0.10;0.10;;;8.90;99.90;;;;;;5032679;28;20045;-73
2023/03/23 06:08:53;;;;;;;0.10;0.10;;;8.90;99.90;;;;;;5032899;28;20032;-73
2023/03/23 06:11:19;;;;;;;0.10;0.10;;;8.90;99.90;;;;;;5033199;28;20026;-73
2023/03/23 06:13:45;;;;;;;0.10;0.10;;;8.90;99.90;;;;;;5032844;28;20032;-73
2023/03/23 06:16:11;;;;;;;0.10;0.10;;;9.00;99.90;;;;;;5033054;28;20044;-73
2023/03/23 06:18:36;;;;;;;0.10;0.10;;;9.00;99.90;;;;;;5033037;28;20041;-73
2023/03/23 06:21:03;;;;;;;0.10;0.10;;;9.10;99.90;;;;;;5032695;28;20022;-73
2023/03/23 06:23:29;;;;;;;0.10;0.10;;;9.10;99.90;;;;;;5032820;28;20501;-72
2023/03/23 06:25:59;;;;;;;0.10;0.10;;;9.20;99.90;;;;;;5031882;28;20026;-72
2023/03/23 06:28:24;;;;;;;0.10;0.10;;;9.20;99.90;;;;;;5032908;28;20064;-72
2023/03/23 06:30:50;;;;;;;0.10;0.10;;;9.30;99.90;;;;;;5032247;28;20057;-72
2023/03/23 06:33:17;;;;;;;0.10;0.10;;;9.30;99.90;;;;;;5032791;28;20086;-72
2023/03/23 06:35:43;;;;;;;0.10;0.10;;;9.40;99.90;;;;;;5032685;28;20029;-72
2023/03/23 06:38:08;;;;;;;0.10;0.10;;;9.40;99.90;;;;;;5033068;28;20053;-72
2023/03/23 06:40:35;;;;;;;0.10;0.10;;;9.40;99.90;;;;;;5032650;28;20052;-72
2023/03/23 06:43:01;;;;;;;0.10;0.10;;;9.50;99.90;;;;;;5032337;28;20021;-72
2023/03/23 06:45:27;;;;;;;0.10;0.10;;;9.50;99.90;;;;;;5032713;28;20390;-72
2023/03/23 06:47:52;;;;;;;0.10;0.10;;;9.50;99.90;;;;;;5032896;28;20030;-72
2023/03/23 06:50:18;;;;;;;0.10;0.10;;;9.50;99.90;;;;;;5032777;28;20096;-72
2023/03/23 06:52:48;;;;;;;0.10;0.10;;;9.50;99.90;;;;;;5032350;28;20055;-72
2023/03/23 06:55:15;;;;;;;0.10;0.10;;;9.70;99.90;;;;;;5032221;28;20018;-72
2023/03/23 06:57:42;;;;;;;0.13;0.13;;;9.70;99.90;;;;;;5032257;28;20038;-72
2023/03/23 07:00:11;;;;;;;0.10;0.10;;;9.70;99.90;;;;;;5031311;28;20070;-72
2023/03/23 07:02:37;;;;;;;0.15;0.15;;;9.80;99.90;;;;;;5032030;28;20689;-72
2023/03/23 07:05:03;;;;;;;0.10;0.10;;;9.70;99.90;;;;;;5033854;28;20104;-72
2023/03/23 07:07:29;;;;;;;0.10;0.10;;;9.80;99.90;;;;;;5036505;28;20151;-72
2023/03/23 07:09:55;;;;;;;0.10;0.10;;;9.80;99.90;;;;;;5036263;28;20059;-72
2023/03/23 07:12:21;;;;;;;0.10;0.10;;;9.80;99.90;;;;;;5036213;28;20022;-73
2023/03/23 07:14:47;;;;;;;0.10;0.10;;;9.80;99.90;;;;;;5036137;28;20368;-72
2023/03/23 07:17:12;;;;;;;0.20;0.20;;;9.70;99.90;;;;;;5035757;28;20028;-72
2023/03/23 07:19:38;;;;;;;0.10;0.10;;;9.70;99.90;;;;;;5035680;28;20514;-72
2023/03/23 07:22:05;;;;;;;0.10;0.10;;;9.80;99.90;;;;;;5036499;28;20029;-72
2023/03/23 07:24:31;;;;;;;0.20;0.20;;;9.70;99.90;;;;;;5035538;28;20529;-72
2023/03/23 07:26:56;;;;;;;0.10;0.10;;;9.70;99.90;;;;;;5035917;28;20029;-72
2023/03/23 07:29:22;;;;;;;0.10;0.10;;;9.70;99.90;;;;;;5034437;28;20028;-72
2023/03/23 07:31:47;;;;;;;0.20;0.20;;;9.80;99.90;;;;;;5036635;28;20034;-72
2023/03/23 07:34:13;;;;;;;0.10;0.10;;;9.70;99.90;;;;;;5035832;28;20382;-72
2023/03/23 07:36:39;;;;;;;0.10;0.10;;;9.70;99.90;;;;;;5035788;28;20040;-72
2023/03/23 07:39:07;;;;;;;0.20;0.20;;;9.70;99.90;;;;;;5035256;28;20101;-73
2023/03/23 07:41:33;;;;;;;0.10;0.10;;;9.70;99.90;;;;;;5036113;28;20383;-73
2023/03/23 07:43:58;;;;;;;0.20;0.20;;;9.70;99.90;;;;;;5035617;28;20021;-72
2023/03/23 07:46:24;;;;;;;0.10;0.10;;;9.90;99.90;;;;;;5035396;28;20022;-72
2023/03/23 07:48:50;;;;;;;0.10;0.10;;;9.90;99.90;;;;;;5034984;28;20506;-72
2023/03/23 07:51:18;;;;;;;0.10;0.10;;;9.90;99.90;;;;;;5035495;28;20505;-72
2023/03/23 07:53:44;;;;;;;0.10;0.10;;;10.00;99.90;;;;;;5035778;28;20025;-72
2023/03/23 07:56:12;;;;;;;0.10;0.10;;;10.00;99.90;;;;;;5035286;28;20105;-72
2023/03/23 07:58:37;;;;;;;0.10;0.10;;;10.00;99.90;;;;;;5034998;28;20028;-73
2023/03/23 08:01:03;;;;;;;0.10;0.10;;;10.00;99.90;;;;;;5034765;28;20096;-73
2023/03/23 08:03:29;;;;;;;0.15;0.15;;;10.00;99.90;;;;;;5035364;28;20034;-73
2023/03/23 08:05:59;;;;;;;0.10;0.10;;;10.00;99.90;;;;;;5035357;28;20013;-73
2023/03/23 08:08:24;;;;;;;0.10;0.10;;;10.00;99.90;;;;;;5034614;28;20021;-73
2023/03/23 08:10:50;;;;;;;0.20;0.20;;;9.90;99.90;;;;;;5035161;28;20498;-73
2023/03/23 08:13:16;;;;;;;0.10;0.10;;;10.00;99.90;;;;;;5035021;28;20033;-73
2023/03/23 08:15:42;;;;;;;0.10;0.10;;;10.00;99.90;;;;;;5034735;28;20037;-73
2023/03/23 08:18:09;;;;;;;0.10;0.10;;;10.20;99.90;;;;;;5034475;28;20021;-72
2023/03/23 08:20:35;;;;;;;0.10;0.10;;;10.40;99.90;;;;;;5033551;28;20033;-73
2023/03/23 08:23:02;;;;;;;0.20;0.20;;;10.40;99.90;;;;;;5035288;28;20025;-73
2023/03/23 08:25:30;;;;;;;0.20;0.20;;;10.40;99.90;;;;;;5034864;28;20026;-73
2023/03/23 08:27:57;;;;;;;0.13;0.13;;;10.40;99.90;;;;;;5034267;28;20021;-73
2023/03/23 08:30:23;;;;;;;0.20;0.20;;;10.50;99.90;;;;;;5034919;28;20022;-73
2023/03/23 08:32:50;;;;;;;0.10;0.10;;;10.60;99.90;;;;;;5034945;28;20448;-73
2023/03/23 08:35:16;;;;;;;0.20;0.20;;;10.40;99.90;;;;;;5034472;28;20041;-73
2023/03/23 08:37:43;;;;;;;0.20;0.20;;;10.20;99.90;;;;;;5032815;28;20087;-73
2023/03/23 08:40:10;;;;;;;0.10;0.10;;;10.10;99.90;;;;;;5034356;28;20146;-73
2023/03/23 08:42:37;;;;;;;0.20;0.20;;;10.10;99.90;;;;;;5035031;28;20076;-73
2023/03/23 08:45:08;;;;;;;0.10;0.10;;;10.10;99.90;;;;;;5034282;28;20020;-73
2023/03/23 08:47:35;;;;;;;0.10;0.10;;;10.10;99.90;;;;;;5034471;28;20021;-73
2023/03/23 08:50:01;;;;;;;0.10;0.10;;;10.20;99.90;;;;;;5033817;28;20021;-73
2023/03/23 08:52:28;;;;;;;0.10;0.10;;;10.20;99.90;;;;;;5034705;28;20426;-73
2023/03/23 08:54:54;;;;;;;0.10;0.10;;;10.00;99.90;;;;;;5034368;28;20025;-73
2023/03/23 08:57:20;;;;;;;0.20;0.20;;;10.00;99.90;;;;;;5033617;28;20033;-73
2023/03/23 08:59:46;;;;;;;0.15;0.15;;;10.00;99.90;;;;;;5034516;28;20171;-73
2023/03/23 09:02:12;;;;;;;0.10;0.10;;;9.90;99.90;;;;;;5034383;28;20032;-73
2023/03/23 09:04:39;;;;;;;0.10;0.10;;;9.80;99.90;;;;;;5034232;28;20032;-73
2023/03/23 09:07:05;;;;;;;0.10;0.10;;;9.90;99.90;;;;;;5033551;28;20109;-73
2023/03/23 09:09:33;;;;;;;0.10;0.10;;;9.90;99.90;;;;;;5032706;28;20657;-73
2023/03/23 09:11:59;;;;;;;0.20;0.20;;;10.00;99.90;;;;;;5033942;28;20516;-73
2023/03/23 09:14:25;;;;;;;0.10;0.10;;;10.00;99.90;;;;;;5033582;28;20056;-73
2023/03/23 09:16:51;;;;;;;0.13;0.13;;;10.00;99.90;;;;;;5034128;28;20026;-74
2023/03/23 09:19:16;;;;;;;0.10;0.10;;;10.00;99.90;;;;;;5033716;28;20495;-75
2023/03/23 09:21:42;;;;;;;0.20;0.20;;;10.00;99.90;;;;;;5033798;28;20030;-74
2023/03/23 09:24:07;;;;;;;0.20;0.20;;;10.10;99.90;;;;;;5033608;28;20024;-75
2023/03/23 09:26:33;;;;;;;0.10;0.10;;;10.10;99.90;;;;;;5033419;28;20064;-73
2023/03/23 09:28:58;;;;;;;0.10;0.10;;;10.20;99.90;;;;;;5032854;28;20021;-73
2023/03/23 09:31:26;;;;;;;0.10;0.10;;;10.30;99.90;;;;;;5033837;28;20068;-73
2023/03/23 09:33:52;;;;;;;0.20;0.20;;;10.30;99.90;;;;;;5032906;28;20376;-73
2023/03/23 09:36:21;;;;;;;0.20;0.20;;;10.30;99.90;;;;;;5033324;28;20032;-73
2023/03/23 09:38:46;;;;;;;0.15;0.15;;;10.20;99.90;;;;;;5033803;28;20131;-73
2023/03/23 09:41:44;;;;;;;0.10;0.10;;;10.30;99.90;;;;;;5033254;28;20143;-73
2023/03/23 09:44:31;;;;;;;0.10;0.10;;;10.30;99.90;;;;;;5032217;28;20475;-72
2023/03/23 09:47:15;;;;;;;0.13;0.13;;;10.40;99.90;;;;;;5033683;28;20387;-73
2023/03/23 09:49:48;;;;;;;0.10;0.10;;;10.40;99.90;;;;;;5033612;28;20125;-73
2023/03/23 09:52:18;;;;;;;0.20;0.20;;;10.60;99.90;;;;;;5033266;28;20061;-73
2023/03/23 09:54:50;;;;;;;0.20;0.20;;;10.90;99.90;;;;;;5033611;28;20036;-74
2023/03/23 09:57:40;;;;;;;0.10;0.10;;;10.80;99.90;;;;;;5032545;28;20030;-73
2023/03/23 10:00:25;;;;;;;0.10;0.10;;;11.00;99.90;;;;;;5033384;28;20030;-74
2023/03/23 10:03:15;;;;;;;0.20;0.20;;;10.90;99.90;;;;;;5033264;28;20497;-73
2023/03/23 10:05:47;;;;;;;0.10;0.10;;;10.80;99.90;;;;;;5033482;28;20101;-73
2023/03/23 10:08:18;;;;;;;0.10;0.10;;;10.80;99.90;;;;;;5032559;28;20078;-73
2023/03/23 10:11:04;;;;;;;0.20;0.20;;;10.70;99.90;;;;;;5033016;28;20092;-73
2023/03/23 10:14:00;;;;;;;0.15;0.15;;;10.70;99.90;;;;;;5033026;28;20053;-73
2023/03/23 10:16:40;;;;;;;0.10;0.10;;;10.60;99.90;;;;;;5028063;28;20117;-73
2023/03/23 10:19:20;;;;;;;0.20;0.20;;;10.70;99.90;;;;;;5030950;28;20037;-75
2023/03/23 10:21:52;;;;;;;0.20;0.20;;;10.70;99.90;;;;;;5047501;23;20050;-76
2023/03/23 10:24:26;;;;;;;0.13;0.13;;;10.60;99.90;;;;;;5033458;28;20026;-75
2023/03/23 10:27:25;;;;;;;0.10;0.10;;;10.80;99.90;;;;;;5032014;28;20112;-76
2023/03/23 10:29:59;;;;;;;0.10;0.10;;;10.80;99.90;;;;;;5033532;28;20025;-76
2023/03/23 10:32:49;;;;;;;0.17;0.17;;;10.80;99.90;;;;;;5033400;28;20025;-76
2023/03/23 10:35:19;;;;;;;0.15;0.15;;;10.90;99.90;;;;;;5032485;28;20032;-74
2023/03/23 10:37:52;;;;;;;0.20;0.20;;;10.90;99.90;;;;;;5033091;28;20101;-76
2023/03/23 10:40:20;;;;;;;;;;;11.20;99.90;;;;;;5035354;28;20100;-77
2023/03/23 10:42:47;;;;;;;0.13;0.13;;;11.30;99.90;;;;;;5037233;28;19916;-76
2023/03/23 10:45:20;;;;;;;0.10;0.10;;;11.50;99.90;;;;;;5035507;28;20022;-76
2023/03/23 10:47:54;;;;;;;0.10;0.10;;;11.50;99.90;;;;;;5025483;28;20096;-76
2023/03/23 10:50:28;;;;;;;0.20;0.20;;;11.30;99.90;;;;;;5017663;28;20021;-76
2023/03/23 10:52:57;;;;;;;0.10;0.10;;;11.00;99.90;;;;;;5021650;28;20060;-76
2023/03/23 10:55:24;;;;;;;0.20;0.20;;;11.20;99.90;;;;;;5037365;28;20028;-76
2023/03/23 10:58:01;;;;;;;0.10;0.10;;;11.00;99.90;;;;;;5035159;28;20060;-77
2023/03/23 11:00:27;;;;;;;0.10;0.10;;;11.20;99.90;;;;;;5037319;28;20536;-77
2023/03/23 11:03:07;;;;;;;0.20;0.20;;;11.20;99.90;;;;;;5036960;28;20605;-76
2023/03/23 11:05:40;;;;;;;0.13;0.13;;;11.30;99.90;;;;;;5036920;28;20019;-76
2023/03/23 11:08:16;;;;;;;0.20;0.20;;;11.60;99.90;;;;;;5037631;28;20037;-76
2023/03/23 11:10:52;;;;;;;0.17;0.17;;;11.60;99.90;;;;;;5036970;28;20037;-77
2023/03/23 11:13:19;;;;;;;0.10;0.10;;;11.60;99.90;;;;;;5037039;28;20022;-76
2023/03/23 11:15:47;;;;;;;0.20;0.20;;;11.70;99.90;;;;;;5036740;28;20056;-76
2023/03/23 11:18:23;;;;;;;0.10;0.10;;;11.70;99.90;;;;;;5036250;28;20124;-77
2023/03/23 11:20:54;;;;;;;0.20;0.20;;;11.60;99.90;;;;;;5035496;28;20064;-77
2023/03/23 11:23:31;;;;;;;0.20;0.20;;;11.40;99.90;;;;;;5035639;28;20017;-76
2023/03/23 11:25:57;;;;;;;0.10;0.10;;;11.30;99.90;;;;;;5036917;28;20017;-76
2023/03/23 11:28:27;;;;;;;0.13;0.13;;;11.40;99.90;;;;;;5036160;28;20022;-77
2023/03/23 11:30:55;;;;;;;0.10;0.10;;;11.80;99.90;;;;;;5035638;28;20025;-76
2023/03/23 11:33:24;;;;;;;0.15;0.15;;;12.10;99.90;;;;;;5036426;28;20608;-77
2023/03/23 11:35:53;;;;;;;0.10;0.10;;;12.20;99.90;;;;;;5036591;28;20487;-77
2023/03/23 11:38:21;;;;;;;0.20;0.20;;;12.20;99.90;;;;;;5036261;28;20025;-76
2023/03/23 11:40:51;;;;;;;0.20;0.20;;;12.00;99.90;;;;;;5035987;28;20025;-77
2023/03/23 11:43:24;;;;;;;0.20;0.20;;;12.30;99.90;;;;;;5036410;28;20071;-77
2023/03/23 11:46:23;;;;;;;0.10;0.10;;;12.40;99.90;;;;;;5036500;28;20022;-77
2023/03/23 11:48:59;;;;;;;0.10;0.10;;;12.40;99.90;;;;;;5036312;28;20075;-77
2023/03/23 11:51:34;;;;;;;0.20;0.20;;;12.50;99.90;;;;;;5035308;28;20075;-77
2023/03/23 11:54:09;;;;;;;0.10;0.10;;;12.40;99.90;;;;;;5035926;28;20073;-77
2023/03/23 11:56:37;;;;;;;0.10;0.10;;;12.50;99.90;;;;;;5036480;28;20021;-77
2023/03/23 11:59:08;;;;;;;0.20;0.20;;;12.50;99.90;;;;;;5034638;28;20022;-77
2023/03/23 12:02:06;;;;;;;0.17;0.17;;;12.70;99.90;;;;;;5036062;28;20045;-77
2023/03/23 12:04:57;;;;;;;0.10;0.10;;;12.90;99.90;;;;;;5028687;28;20557;-77
2023/03/23 12:07:47;;;;;;;0.10;0.10;;;12.90;99.90;;;;;;5017038;28;20022;-77
2023/03/23 12:10:34;;;;;;;0.10;0.10;;;12.70;99.90;;;;;;5015847;28;20025;-77
2023/03/23 12:13:30;;;;;;;0.10;0.10;;;12.80;99.90;;;;;;5016380;28;20468;-77
2023/03/23 12:16:19;;;;;;;0.20;0.20;;;13.00;99.90;;;;;;5016046;28;20033;-75
2023/03/23 12:19:14;;;;;;;0.10;0.10;;;12.60;99.90;;;;;;5016129;28;20033;-77
2023/03/23 12:22:25;;;;;;;0.17;0.17;;;12.00;99.90;;;;;;5004806;28;20423;-77
2023/03/23 12:25:19;;;;;;;0.10;0.10;;;12.10;99.90;;;;;;4990896;28;20458;-77
2023/03/23 12:28:01;;;;;;;0.20;0.20;;;13.00;99.90;;;;;;5013918;28;20495;-77
2023/03/23 12:30:33;;;;;;;0.10;0.10;;;13.20;99.90;;;;;;5016411;28;20033;-77
2023/03/23 12:33:34;;;;;;;0.10;0.10;;;13.50;99.90;;;;;;5034450;28;20060;-77
2023/03/23 12:36:11;;;;;;;0.10;0.10;;;13.80;99.90;;;;;;5034817;28;20029;-77
2023/03/23 12:39:05;;;;;;;0.20;0.20;;;13.70;99.90;;;;;;5035209;28;20024;-77
2023/03/23 12:41:44;;;;;;;0.10;0.10;;;13.70;99.90;;;;;;5034977;28;20475;-77
2023/03/23 12:44:14;;;;;;;0.10;0.10;;;13.60;99.90;;;;;;5033531;28;20712;-77
2023/03/23 12:47:22;;;;;;;0.10;0.10;;;13.80;99.90;;;;;;5035210;28;20031;-77
2023/03/23 12:50:00;;;;;;;0.10;0.10;;;13.70;99.90;;;;;;5035143;28;20550;-78
2023/03/23 12:52:39;;;;;;;0.10;0.10;;;13.70;99.90;;;;;;5033605;28;20483;-77
2023/03/23 12:55:23;;;;;;;0.10;0.10;;;13.80;99.90;;;;;;5034778;28;20100;-77
2023/03/23 12:57:59;;;;;;;;;;;13.80;99.90;;;;;;5033751;28;20034;-77
2023/03/23 13:00:29;;;;;;;0.10;0.10;;;13.50;99.90;;;;;;5035046;28;20393;-77
2023/03/23 13:03:09;;;;;;;0.20;0.20;;;13.40;99.90;;;;;;5034076;28;20026;-77
2023/03/23 13:05:56;;;;;;;0.15;0.15;;;13.20;99.90;;;;;;5035247;28;20479;-75
2023/03/23 13:08:29;;;;;;;0.20;0.20;;;12.90;99.90;;;;;;5035459;28;20430;-77
2023/03/23 13:11:01;;;;;;;0.20;0.20;;;13.30;99.90;;;;;;5033530;28;20076;-76